Time;durP1;ratioP1;P1;durP2;ratioP2;P2;SDS_P1;SDS_P2;PMS_P1;PMS_P2;Temp;Humidity;BMP_temperature;BMP_pressure;BME280_temperature;BME280_humidity;BME280_pressure;Samples;Min_cycle;Max_cycle;Signal;HPM_P1;HPM_P2
2021/12/23 00:01:42;;;;;;;25.67;16.53;;;0.40;99.90;;;;;;4882224;29;20040;-84
2021/12/23 00:04:10;;;;;;;27.33;18.63;;;0.40;99.90;;;;;;4857603;29;20044;-85
2021/12/23 00:06:38;;;;;;;28.03;17.87;;;0.40;99.90;;;;;;4887779;29;20032;-84
2021/12/23 00:09:05;;;;;;;24.70;16.20;;;0.40;99.90;;;;;;4870018;29;20492;-84
2021/12/23 00:11:32;;;;;;;29.20;19.17;;;0.40;99.90;;;;;;4866999;29;20036;-83
2021/12/23 00:14:03;;;;;;;26.13;17.37;;;0.40;99.90;;;;;;4878753;29;20032;-84
2021/12/23 00:17:16;;;;;;;27.77;17.60;;;0.40;99.90;;;;;;4883067;29;20055;-84
2021/12/23 00:19:35;;;;;;;27.93;17.10;;;0.30;99.90;;;;;;4878276;29;20099;-83
2021/12/23 00:24:49;;;;;;;25.30;15.83;;;0.40;99.90;;;;;;4875242;29;20032;-84
2021/12/23 00:27:16;;;;;;;24.27;15.23;;;0.40;99.90;;;;;;4890866;29;20055;-83
2021/12/23 00:29:44;;;;;;;21.07;13.73;;;0.40;99.90;;;;;;4868413;29;20412;-83
2021/12/23 00:32:10;;;;;;;20.87;14.63;;;0.40;99.90;;;;;;4875497;29;20040;-83
2021/12/23 00:34:38;;;;;;;22.77;15.27;;;0.40;99.90;;;;;;4867580;29;20044;-83
2021/12/23 00:37:09;;;;;;;24.33;15.00;;;0.40;99.90;;;;;;4863316;29;20047;-84
2021/12/23 00:39:35;;;;;;;22.03;14.90;;;0.40;99.90;;;;;;4890448;29;20036;-83
2021/12/23 00:42:07;;;;;;;26.13;16.30;;;0.50;99.90;;;;;;4874542;29;20044;-84
2021/12/23 00:44:35;;;;;;;23.77;16.05;;;0.50;99.90;;;;;;4858388;29;20048;-84
2021/12/23 00:47:03;;;;;;;24.67;16.53;;;0.50;99.90;;;;;;4896313;29;20048;-84
2021/12/23 00:49:29;;;;;;;23.10;13.80;;;0.50;99.90;;;;;;4843118;29;20052;-84
2021/12/23 00:51:57;;;;;;;21.00;14.70;;;0.50;99.90;;;;;;4845221;29;20046;-84
2021/12/23 00:54:24;;;;;;;26.40;16.40;;;0.50;99.90;;;;;;4848356;29;20493;-84
2021/12/23 00:56:51;;;;;;;27.50;18.17;;;0.50;99.90;;;;;;4824886;29;20041;-83
2021/12/23 00:59:18;;;;;;;25.20;17.07;;;0.50;99.90;;;;;;4889371;29;21373;-84
2021/12/23 01:01:46;;;;;;;26.37;16.97;;;0.50;99.90;;;;;;4828340;29;20060;-84
2021/12/23 01:04:13;;;;;;;26.07;16.90;;;0.50;99.90;;;;;;4851122;29;20071;-83
2021/12/23 01:06:40;;;;;;;28.13;18.30;;;0.50;99.90;;;;;;4860709;29;20043;-85
2021/12/23 01:09:09;;;;;;;28.20;18.93;;;0.50;99.90;;;;;;4855581;29;20041;-84
2021/12/23 01:11:36;;;;;;;28.67;18.33;;;0.50;99.90;;;;;;4842436;29;20045;-84
2021/12/23 01:19:17;;;;;;;25.50;16.90;;;0.60;99.90;;;;;;4830376;29;20056;-84
2021/12/23 01:21:44;;;;;;;21.13;13.77;;;0.50;99.90;;;;;;4837946;29;20401;-83
2021/12/23 01:24:11;;;;;;;24.90;16.60;;;0.50;99.90;;;;;;4841459;29;20036;-78
2021/12/23 01:26:38;;;;;;;25.00;17.70;;;0.60;99.90;;;;;;4868906;29;20041;-77
2021/12/23 01:29:06;;;;;;;27.83;18.10;;;0.50;99.90;;;;;;4857193;29;20040;-77
2021/12/23 01:31:34;;;;;;;29.10;18.70;;;0.60;99.90;;;;;;4869360;29;20057;-77
2021/12/23 01:34:01;;;;;;;27.10;18.67;;;0.60;99.90;;;;;;4875374;29;20044;-77
2021/12/23 01:36:28;;;;;;;24.67;16.30;;;0.60;99.90;;;;;;4858884;29;20052;-77
2021/12/23 01:38:55;;;;;;;27.87;17.30;;;0.50;99.90;;;;;;4890098;29;20041;-77
2021/12/23 01:41:23;;;;;;;25.53;17.50;;;0.50;99.90;;;;;;4853170;29;20587;-77
2021/12/23 01:43:51;;;;;;;29.90;18.07;;;0.50;99.90;;;;;;4870882;29;20062;-77
2021/12/23 01:46:19;;;;;;;26.70;16.87;;;0.50;99.90;;;;;;4853301;29;20052;-77
2021/12/23 01:48:45;;;;;;;25.47;17.07;;;0.50;99.90;;;;;;4875302;29;20053;-77
2021/12/23 01:51:13;;;;;;;24.67;16.63;;;0.60;99.90;;;;;;4884232;29;20059;-77
2021/12/23 01:53:40;;;;;;;24.20;15.53;;;0.60;99.90;;;;;;4881526;29;20040;-77
2021/12/23 01:56:07;;;;;;;26.40;15.47;;;0.60;99.90;;;;;;4909066;29;20040;-77
2021/12/23 01:58:39;;;;;;;23.63;16.67;;;0.60;99.90;;;;;;4865868;29;20055;-77
2021/12/23 02:01:07;;;;;;;22.53;14.60;;;0.60;99.90;;;;;;4910986;29;20483;-77
2021/12/23 02:03:34;;;;;;;26.80;17.90;;;0.60;99.90;;;;;;4845267;29;20683;-77
2021/12/23 02:06:01;;;;;;;25.60;16.00;;;0.60;99.90;;;;;;4852261;29;20047;-77
2021/12/23 02:08:28;;;;;;;21.93;15.03;;;0.50;99.90;;;;;;4858996;29;20044;-77
2021/12/23 02:10:55;;;;;;;22.00;14.97;;;0.60;99.90;;;;;;4912856;29;20048;-77
2021/12/23 02:13:22;;;;;;;25.40;15.57;;;0.60;99.90;;;;;;4865272;29;20063;-77
2021/12/23 02:15:49;;;;;;;22.20;14.20;;;0.60;99.90;;;;;;4891996;29;20483;-77
2021/12/23 02:18:16;;;;;;;23.13;16.30;;;0.60;99.90;;;;;;4882422;29;20040;-77
2021/12/23 02:20:42;;;;;;;24.20;15.87;;;0.60;99.90;;;;;;4865852;29;20041;-77
2021/12/23 02:23:10;;;;;;;25.57;15.20;;;0.60;99.90;;;;;;4876959;29;20044;-83
2021/12/23 02:25:37;;;;;;;25.07;17.10;;;0.60;99.90;;;;;;4897823;29;20043;-77
2021/12/23 02:28:07;;;;;;;27.17;17.73;;;0.60;99.90;;;;;;4878378;29;20045;-77
2021/12/23 02:30:39;;;;;;;26.00;16.97;;;0.50;99.90;;;;;;4877608;29;20056;-77
2021/12/23 02:33:07;;;;;;;29.43;18.67;;;0.50;99.90;;;;;;4906451;29;20404;-77
2021/12/23 02:35:35;;;;;;;27.63;17.27;;;0.50;99.90;;;;;;4877263;29;20476;-77
2021/12/23 02:38:03;;;;;;;25.07;17.63;;;0.40;99.90;;;;;;4867001;29;20039;-77
2021/12/23 02:40:36;;;;;;;33.03;20.43;;;0.40;99.90;;;;;;4879236;29;20063;-77
2021/12/23 02:43:22;;;;;;;;;;;0.30;99.90;;;;;;4879786;29;20047;-77
2021/12/23 02:45:52;;;;;;;28.27;16.93;;;0.20;99.90;;;;;;4890758;29;19922;-77
2021/12/23 02:48:32;;;;;;;24.20;15.93;;;0.20;99.90;;;;;;4895380;29;20036;-77
2021/12/23 02:51:00;;;;;;;31.20;19.00;;;0.20;99.90;;;;;;4879295;29;20052;-77
2021/12/23 02:53:27;;;;;;;27.63;18.47;;;0.10;99.90;;;;;;4891675;29;20039;-76
2021/12/23 02:55:56;;;;;;;29.47;18.93;;;0.20;99.90;;;;;;4858786;29;20047;-77
2021/12/23 02:58:23;;;;;;;25.30;17.30;;;0.10;99.90;;;;;;4877870;29;20388;-84
2021/12/23 03:00:51;;;;;;;22.70;15.87;;;0.10;99.90;;;;;;4894126;29;20109;-84
2021/12/23 03:03:19;;;;;;;26.83;16.20;;;0.00;99.90;;;;;;4889579;29;20037;-84
2021/12/23 03:05:47;;;;;;;27.70;17.43;;;0.00;99.90;;;;;;4859929;29;20043;-84
2021/12/23 03:08:17;;;;;;;27.63;16.77;;;0.00;99.90;;;;;;4894872;29;20032;-84
2021/12/23 03:10:43;;;;;;;28.57;16.23;;;0.00;99.90;;;;;;4861850;29;20144;-84
2021/12/23 03:13:10;;;;;;;26.30;16.40;;;0.10;99.90;;;;;;4858300;29;20037;-84
2021/12/23 03:15:36;;;;;;;27.70;17.07;;;0.10;99.90;;;;;;4864258;29;20044;-84
2021/12/23 03:18:03;;;;;;;24.40;16.60;;;0.10;99.90;;;;;;4869049;29;20400;-84
2021/12/23 03:20:29;;;;;;;24.57;16.50;;;0.20;99.90;;;;;;4862999;29;20036;-85
2021/12/23 03:22:56;;;;;;;32.93;20.23;;;0.20;99.90;;;;;;4874368;29;20835;-85
2021/12/23 03:25:22;;;;;;;29.77;18.70;;;0.20;99.90;;;;;;4852797;29;20059;-85
2021/12/23 03:27:49;;;;;;;29.37;17.87;;;0.20;99.90;;;;;;4862085;29;20041;-84
2021/12/23 03:30:16;;;;;;;26.63;17.77;;;0.20;99.90;;;;;;4872191;29;20044;-85
2021/12/23 03:32:42;;;;;;;27.30;18.03;;;0.20;99.90;;;;;;4896757;29;20475;-84
2021/12/23 03:35:09;;;;;;;28.47;17.50;;;0.10;99.90;;;;;;4860806;29;20045;-85
2021/12/23 03:37:38;;;;;;;25.70;17.10;;;0.10;99.90;;;;;;4879467;29;20037;-86
2021/12/23 03:40:05;;;;;;;33.50;19.70;;;0.10;99.90;;;;;;4882924;29;20040;-85
2021/12/23 03:42:32;;;;;;;32.40;19.90;;;0.10;99.90;;;;;;4875108;29;20048;-85
2021/12/23 03:44:58;;;;;;;31.07;20.80;;;0.00;99.90;;;;;;4865192;29;20150;-85
2021/12/23 03:47:25;;;;;;;31.43;19.60;;;0.00;99.90;;;;;;4869918;29;20052;-86
2021/12/23 03:49:51;;;;;;;32.87;21.13;;;-0.10;99.90;;;;;;4861113;29;20049;-86
2021/12/23 03:52:18;;;;;;;28.23;18.40;;;-0.10;99.90;;;;;;4856585;29;20048;-86
2021/12/23 03:54:45;;;;;;;29.80;19.50;;;-0.10;99.90;;;;;;4865495;29;20041;-86
2021/12/23 03:57:11;;;;;;;32.87;19.43;;;-0.20;99.90;;;;;;4882969;29;20055;-86
2021/12/23 03:59:38;;;;;;;28.67;17.87;;;-0.20;99.90;;;;;;4863684;29;20048;-86
2021/12/23 04:02:07;;;;;;;30.33;20.00;;;-0.30;99.90;;;;;;4907999;29;20037;-86
2021/12/23 04:04:33;;;;;;;30.27;18.67;;;-0.20;99.90;;;;;;4871086;29;20048;-86
2021/12/23 04:07:02;;;;;;;29.87;19.13;;;-0.20;99.90;;;;;;4864066;29;20492;-85
2021/12/23 04:09:29;;;;;;;29.30;19.13;;;-0.20;99.90;;;;;;4859333;29;20040;-86
2021/12/23 04:11:56;;;;;;;32.73;20.57;;;-0.10;99.90;;;;;;4881750;29;20040;-86
2021/12/23 04:14:22;;;;;;;33.20;21.20;;;-0.10;99.90;;;;;;4860541;29;21076;-85
2021/12/23 04:16:49;;;;;;;32.57;21.00;;;-0.10;99.90;;;;;;4878871;29;20369;-86
2021/12/23 04:19:16;;;;;;;34.03;21.03;;;-0.10;99.90;;;;;;4834918;29;20519;-86
2021/12/23 04:21:42;;;;;;;34.53;21.03;;;0.00;99.90;;;;;;4876213;29;20396;-79
2021/12/23 04:24:09;;;;;;;34.30;21.50;;;0.00;99.90;;;;;;4887870;29;20491;-86
2021/12/23 04:26:38;;;;;;;31.73;20.13;;;0.00;99.90;;;;;;4862243;29;20041;-85
2021/12/23 04:29:05;;;;;;;27.73;18.43;;;0.10;99.90;;;;;;4881641;29;20047;-86
2021/12/23 04:31:32;;;;;;;35.60;22.10;;;0.10;99.90;;;;;;4872590;29;20490;-86
2021/12/23 04:33:59;;;;;;;33.87;21.47;;;0.10;99.90;;;;;;4889624;29;20695;-86
2021/12/23 04:36:29;;;;;;;28.47;18.70;;;0.10;99.90;;;;;;4879756;29;20452;-85
2021/12/23 04:38:58;;;;;;;28.80;17.30;;;0.10;99.90;;;;;;4881161;29;20048;-86
2021/12/23 04:41:26;;;;;;;33.03;21.40;;;0.20;99.90;;;;;;4851918;29;20051;-86
2021/12/23 04:43:53;;;;;;;30.77;19.83;;;0.20;99.90;;;;;;4881147;29;20032;-86
2021/12/23 04:46:20;;;;;;;31.50;19.40;;;0.20;99.90;;;;;;4868772;29;20804;-86
2021/12/23 04:48:47;;;;;;;32.37;18.80;;;0.20;99.90;;;;;;4854137;29;20525;-85
2021/12/23 04:51:15;;;;;;;32.43;20.97;;;0.20;99.90;;;;;;4865605;29;20040;-85
2021/12/23 04:53:44;;;;;;;31.10;19.40;;;0.30;99.90;;;;;;4874468;29;20357;-86
2021/12/23 04:56:12;;;;;;;31.67;20.03;;;0.30;99.90;;;;;;4863026;29;20046;-86
2021/12/23 04:58:40;;;;;;;32.23;18.63;;;0.30;99.90;;;;;;4868751;29;20036;-86
2021/12/23 05:01:16;;;;;;;30.73;19.43;;;0.30;99.90;;;;;;4859896;29;20126;-86
2021/12/23 05:03:43;;;;;;;27.57;17.70;;;0.30;99.90;;;;;;4849679;29;20052;-86
2021/12/23 05:06:09;;;;;;;27.77;18.10;;;0.30;99.90;;;;;;4867813;29;20056;-86
2021/12/23 05:08:36;;;;;;;25.00;16.90;;;0.30;99.90;;;;;;4868874;29;20051;-86
2021/12/23 05:11:02;;;;;;;37.03;21.80;;;0.30;99.90;;;;;;4881986;29;20040;-86
2021/12/23 05:13:31;;;;;;;29.93;19.40;;;0.30;99.90;;;;;;4842292;29;20048;-86
2021/12/23 05:15:58;;;;;;;31.73;19.23;;;0.30;99.90;;;;;;4882491;29;20403;-86
2021/12/23 05:18:24;;;;;;;27.00;16.87;;;0.40;99.90;;;;;;4878016;29;20036;-87
2021/12/23 05:20:51;;;;;;;27.70;17.93;;;0.30;99.90;;;;;;4865271;29;20048;-87
2021/12/23 05:23:18;;;;;;;27.77;16.67;;;0.40;99.90;;;;;;4878959;29;20376;-86
2021/12/23 05:25:45;;;;;;;27.77;16.80;;;0.40;99.90;;;;;;4894353;29;20433;-86
2021/12/23 05:28:13;;;;;;;28.13;18.40;;;0.40;99.90;;;;;;4866188;29;20040;-86
2021/12/23 05:30:40;;;;;;;27.70;16.70;;;0.40;99.90;;;;;;4863942;29;20040;-87
2021/12/23 05:33:07;;;;;;;27.67;17.53;;;0.40;99.90;;;;;;4879322;29;20040;-87
2021/12/23 05:35:33;;;;;;;30.90;19.43;;;0.40;99.90;;;;;;4864282;29;20692;-78
2021/12/23 05:38:00;;;;;;;30.63;18.77;;;0.40;99.90;;;;;;4886970;29;20735;-87
2021/12/23 05:40:32;;;;;;;29.80;18.03;;;0.40;99.90;;;;;;4893311;29;20392;-87
2021/12/23 05:42:59;;;;;;;28.93;19.40;;;0.40;99.90;;;;;;4864256;29;20033;-79
2021/12/23 05:45:25;;;;;;;34.27;20.53;;;0.40;99.90;;;;;;4892364;29;20036;-79
2021/12/23 05:47:52;;;;;;;35.60;22.17;;;0.40;99.90;;;;;;4861088;29;20040;-78
2021/12/23 05:50:20;;;;;;;33.60;22.33;;;0.40;99.90;;;;;;4911082;29;20049;-78
2021/12/23 05:52:47;;;;;;;36.50;24.00;;;0.50;99.90;;;;;;4884190;29;20361;-78
2021/12/23 05:55:14;;;;;;;33.17;22.17;;;0.50;99.90;;;;;;4866078;29;20807;-78
2021/12/23 05:57:45;;;;;;;30.23;18.00;;;0.50;99.90;;;;;;4864797;29;20479;-78
2021/12/23 06:00:16;;;;;;;37.47;23.57;;;0.40;99.90;;;;;;4863961;29;20044;-79
2021/12/23 06:02:43;;;;;;;41.57;25.20;;;0.50;99.90;;;;;;4876620;29;20519;-80
2021/12/23 06:05:10;;;;;;;33.23;21.50;;;0.40;99.90;;;;;;4880048;29;20361;-78
2021/12/23 06:07:40;;;;;;;39.87;23.93;;;0.50;99.90;;;;;;4912505;29;20427;-78
2021/12/23 06:10:07;;;;;;;36.10;22.77;;;0.50;99.90;;;;;;4896799;29;20052;-78
2021/12/23 06:12:34;;;;;;;41.53;25.77;;;0.50;99.90;;;;;;4893541;29;20045;-78
2021/12/23 06:15:01;;;;;;;39.77;24.53;;;0.50;99.90;;;;;;4896039;29;20510;-83
2021/12/23 06:17:30;;;;;;;40.10;23.97;;;0.40;99.90;;;;;;4872356;29;20043;-83
2021/12/23 06:19:59;;;;;;;41.75;23.88;;;0.40;99.90;;;;;;4866019;29;20048;-84
2021/12/23 06:22:41;;;;;;;40.17;24.40;;;0.40;99.90;;;;;;4864008;29;20524;-84
2021/12/23 06:25:16;;;;;;;36.33;22.30;;;0.30;99.90;;;;;;4876195;29;20045;-83
2021/12/23 06:27:46;;;;;;;34.67;21.13;;;0.30;99.90;;;;;;4866299;29;20051;-81
2021/12/23 06:30:19;;;;;;;41.50;26.40;;;0.30;99.90;;;;;;4912594;29;20036;-81
2021/12/23 06:32:50;;;;;;;37.50;23.30;;;0.30;99.90;;;;;;4894071;29;20036;-82
2021/12/23 06:35:19;;;;;;;34.00;21.23;;;0.30;99.90;;;;;;4862753;29;20032;-82
2021/12/23 06:37:45;;;;;;;39.60;22.67;;;0.30;99.90;;;;;;4875824;29;20731;-82
2021/12/23 06:40:13;;;;;;;37.20;22.83;;;0.30;99.90;;;;;;4859157;29;20044;-82
2021/12/23 06:42:41;;;;;;;47.87;27.67;;;0.40;99.90;;;;;;4878931;29;20051;-82
2021/12/23 06:45:08;;;;;;;39.70;23.83;;;0.40;99.90;;;;;;4898104;29;20040;-83
2021/12/23 06:47:35;;;;;;;38.70;23.73;;;0.40;99.90;;;;;;4889124;29;20047;-83
2021/12/23 06:50:04;;;;;;;39.47;23.60;;;0.40;99.90;;;;;;4878863;29;20501;-83
2021/12/23 06:52:31;;;;;;;42.03;26.03;;;0.40;99.90;;;;;;4865161;29;20032;-84
2021/12/23 06:54:58;;;;;;;39.90;25.17;;;0.40;99.90;;;;;;4867323;29;20036;-83
2021/12/23 06:57:26;;;;;;;42.97;26.40;;;0.40;99.90;;;;;;4898767;29;20036;-83
2021/12/23 06:59:56;;;;;;;35.27;21.57;;;0.40;99.90;;;;;;4861629;29;20040;-80
2021/12/23 07:02:26;;;;;;;39.10;24.20;;;0.50;99.90;;;;;;4873618;29;20044;-80
2021/12/23 07:04:52;;;;;;;35.40;23.60;;;0.50;99.90;;;;;;4863813;29;20684;-81
2021/12/23 07:07:28;;;;;;;38.33;24.67;;;0.50;99.90;;;;;;4890053;29;20037;-80
2021/12/23 07:09:56;;;;;;;38.57;22.23;;;0.50;99.90;;;;;;4890252;29;20051;-81
2021/12/23 07:12:23;;;;;;;34.83;21.97;;;0.60;99.90;;;;;;4855194;29;20479;-81
2021/12/23 07:14:50;;;;;;;37.40;22.83;;;0.60;99.90;;;;;;4901684;29;20039;-81
2021/12/23 07:17:17;;;;;;;39.40;23.03;;;0.60;99.90;;;;;;4898657;29;20043;-80
2021/12/23 07:19:44;;;;;;;37.57;21.97;;;0.60;99.90;;;;;;4876183;29;20046;-86
2021/12/23 07:22:11;;;;;;;35.43;21.13;;;0.60;99.90;;;;;;4852071;29;20044;-86
2021/12/23 07:24:39;;;;;;;34.83;19.93;;;0.70;99.90;;;;;;4870108;29;20467;-86
2021/12/23 07:27:09;;;;;;;35.30;20.60;;;0.70;99.90;;;;;;4876509;29;20039;-86
2021/12/23 07:29:36;;;;;;;36.57;21.17;;;0.70;99.90;;;;;;4879858;29;20055;-86
2021/12/23 07:32:09;;;;;;;41.83;24.20;;;0.70;99.90;;;;;;4867802;29;20516;-85
2021/12/23 07:34:39;;;;;;;37.90;22.77;;;0.70;99.90;;;;;;4880893;29;20044;-85
2021/12/23 07:37:06;;;;;;;39.40;23.80;;;0.70;99.90;;;;;;4884609;29;20044;-85
2021/12/23 07:39:32;;;;;;;36.53;21.13;;;0.80;99.90;;;;;;4859258;29;20032;-86
2021/12/23 07:41:59;;;;;;;32.67;19.60;;;0.80;99.90;;;;;;4873000;29;20059;-86
2021/12/23 07:44:25;;;;;;;38.00;21.50;;;0.80;99.90;;;;;;4873446;29;20037;-86
2021/12/23 07:46:52;;;;;;;37.80;23.50;;;0.80;99.90;;;;;;4874426;29;20037;-82
2021/12/23 07:49:22;;;;;;;41.03;23.63;;;0.90;99.90;;;;;;4874667;29;20044;-85
2021/12/23 07:51:49;;;;;;;37.63;23.07;;;0.80;99.90;;;;;;4864474;29;20044;-84
2021/12/23 07:54:19;;;;;;;39.47;22.73;;;0.80;99.90;;;;;;4857316;29;20129;-85
2021/12/23 07:56:51;;;;;;;46.20;26.23;;;0.80;99.90;;;;;;4874258;29;20032;-84
2021/12/23 07:59:18;;;;;;;42.03;24.30;;;0.90;99.90;;;;;;4854349;29;20380;-82
2021/12/23 08:01:44;;;;;;;39.77;23.17;;;0.90;99.90;;;;;;4869541;29;20047;-85
2021/12/23 08:04:20;;;;;;;40.23;24.23;;;0.90;99.90;;;;;;4883116;29;20392;-81
2021/12/23 08:06:55;;;;;;;39.63;23.23;;;0.90;99.90;;;;;;4874456;29;20388;-80
2021/12/23 08:09:23;;;;;;;41.43;25.07;;;0.90;99.90;;;;;;4891500;29;20041;-84
2021/12/23 08:11:50;;;;;;;41.50;24.07;;;0.90;99.90;;;;;;4874701;29;20138;-83
2021/12/23 08:14:17;;;;;;;40.07;23.40;;;0.90;99.90;;;;;;4860733;29;20044;-83
2021/12/23 08:16:43;;;;;;;40.07;22.87;;;0.90;99.90;;;;;;4881439;29;20036;-83
2021/12/23 08:19:11;;;;;;;39.87;22.47;;;0.90;99.90;;;;;;4877204;29;20043;-83
2021/12/23 08:21:38;;;;;;;41.30;24.27;;;0.90;99.90;;;;;;4879190;29;20147;-82
2021/12/23 08:24:06;;;;;;;38.90;24.07;;;0.90;99.90;;;;;;4869382;29;20040;-83
2021/12/23 08:26:39;;;;;;;40.23;22.03;;;1.00;99.90;;;;;;4886668;29;20032;-82
2021/12/23 08:29:08;;;;;;;38.67;21.30;;;1.00;99.90;;;;;;4888017;29;20031;-81
2021/12/23 08:31:35;;;;;;;42.40;23.60;;;1.00;99.90;;;;;;4861527;29;20052;-79
2021/12/23 08:34:02;;;;;;;37.60;22.67;;;1.00;99.90;;;;;;4870274;29;20499;-77
2021/12/23 08:36:29;;;;;;;36.13;22.40;;;1.00;99.90;;;;;;4904084;29;20032;-80
2021/12/23 08:38:58;;;;;;;36.57;21.73;;;1.00;99.90;;;;;;4871080;29;20712;-80
2021/12/23 08:41:24;;;;;;;36.27;21.40;;;1.00;99.90;;;;;;4885621;29;20129;-80
2021/12/23 08:43:51;;;;;;;39.43;22.47;;;1.00;99.90;;;;;;4901856;29;20028;-80
2021/12/23 08:46:18;;;;;;;40.10;24.13;;;1.00;99.90;;;;;;4876580;29;20043;-79
2021/12/23 08:48:44;;;;;;;38.07;21.83;;;1.10;99.90;;;;;;4892039;29;20072;-79
2021/12/23 08:51:11;;;;;;;39.37;23.67;;;1.10;99.90;;;;;;4885455;29;20056;-80
2021/12/23 08:53:37;;;;;;;40.60;25.37;;;1.10;99.90;;;;;;4878477;29;20048;-80
2021/12/23 08:56:08;;;;;;;41.47;24.53;;;1.10;99.90;;;;;;4862429;29;20040;-79
2021/12/23 08:58:39;;;;;;;38.33;22.10;;;1.10;99.90;;;;;;4862176;29;20418;-79
2021/12/23 09:01:06;;;;;;;38.00;22.80;;;1.10;99.90;;;;;;4891455;29;20748;-80
2021/12/23 09:03:33;;;;;;;39.07;24.83;;;1.20;99.90;;;;;;4863103;29;20045;-79
2021/12/23 09:06:02;;;;;;;38.57;21.63;;;1.20;99.90;;;;;;4875915;29;20044;-81
2021/12/23 09:08:29;;;;;;;36.50;22.63;;;1.20;99.90;;;;;;4880435;29;20040;-79
2021/12/23 09:10:57;;;;;;;39.67;23.27;;;1.20;99.90;;;;;;4861301;29;20040;-80
2021/12/23 09:13:25;;;;;;;37.13;22.83;;;1.20;99.90;;;;;;4864158;29;20044;-79
2021/12/23 09:15:52;;;;;;;46.43;27.17;;;1.30;99.90;;;;;;4909649;29;20032;-80
2021/12/23 09:18:22;;;;;;;44.53;26.30;;;1.30;99.90;;;;;;4891264;29;20060;-80
2021/12/23 09:20:49;;;;;;;48.80;29.17;;;1.30;99.90;;;;;;4861265;29;20390;-80
2021/12/23 09:23:17;;;;;;;41.97;25.50;;;1.40;99.90;;;;;;4859426;29;20048;-81
2021/12/23 09:25:46;;;;;;;42.53;25.47;;;1.30;99.90;;;;;;4875741;29;20040;-84
2021/12/23 09:33:33;;;;;;;39.73;23.43;;;1.50;99.90;;;;;;4886933;29;20055;-80
2021/12/23 09:36:00;;;;;;;45.23;25.70;;;1.50;99.90;;;;;;4878893;29;20040;-81
2021/12/23 09:38:27;;;;;;;46.43;27.00;;;1.60;99.90;;;;;;4876180;29;20029;-79
2021/12/23 09:41:06;;;;;;;43.40;27.70;;;1.60;99.90;;;;;;4868523;29;20489;-84
2021/12/23 09:43:35;;;;;;;51.17;29.40;;;1.70;99.90;;;;;;4893310;29;20028;-82
2021/12/23 09:46:03;;;;;;;49.90;29.87;;;1.70;99.90;;;;;;4874254;29;20055;-81
2021/12/23 09:48:32;;;;;;;44.20;26.03;;;1.60;99.90;;;;;;4910059;29;20045;-79
2021/12/23 09:51:05;;;;;;;41.03;24.67;;;1.70;99.90;;;;;;4859232;29;20064;-80
2021/12/23 09:53:34;;;;;;;43.67;25.83;;;1.60;99.90;;;;;;4887016;29;20044;-81
2021/12/23 09:56:01;;;;;;;43.47;25.43;;;1.70;99.90;;;;;;4857764;29;20511;-81
2021/12/23 09:58:30;;;;;;;40.13;24.90;;;1.80;99.90;;;;;;4861581;29;20040;-80
2021/12/23 10:00:58;;;;;;;39.87;24.17;;;1.90;99.90;;;;;;4876078;29;20123;-81
2021/12/23 10:03:26;;;;;;;40.97;24.80;;;1.90;99.90;;;;;;4869754;29;20040;-81
2021/12/23 10:05:53;;;;;;;53.37;28.87;;;2.00;99.90;;;;;;4861015;29;20032;-80
2021/12/23 10:08:20;;;;;;;45.43;26.87;;;2.00;99.90;;;;;;4844660;29;20056;-80
2021/12/23 10:38:44;;;;;;;46.20;25.90;;;2.50;99.90;;;;;;4868195;29;20033;-81
2021/12/23 10:41:32;;;;;;;46.77;27.90;;;2.60;99.90;;;;;;4874235;29;20047;-81
2021/12/23 10:44:01;;;;;;;44.13;27.97;;;2.60;99.90;;;;;;4843149;29;20122;-78
2021/12/23 10:46:42;;;;;;;46.57;27.63;;;2.60;99.90;;;;;;4861021;29;20510;-79
2021/12/23 10:51:57;;;;;;;45.73;26.80;;;2.70;99.90;;;;;;4862134;29;20390;-79
2021/12/23 11:00:55;;;;;;;42.87;26.27;;;2.80;99.90;;;;;;4821416;29;20034;-78
2021/12/23 11:03:34;;;;;;;50.03;27.67;;;2.80;99.90;;;;;;4820375;29;20064;-79
2021/12/23 11:08:59;;;;;;;45.55;26.90;;;2.90;99.90;;;;;;4879641;29;20056;-79
2021/12/23 11:32:12;;;;;;;37.97;22.70;;;3.10;99.90;;;;;;4866094;29;20044;-79
2021/12/23 11:39:44;;;;;;;37.50;22.70;;;3.30;99.90;;;;;;4867735;29;20032;-78
2021/12/23 11:42:30;;;;;;;43.33;25.30;;;3.30;99.90;;;;;;4904220;29;20047;-78
2021/12/23 11:44:57;;;;;;;44.17;27.37;;;3.30;99.90;;;;;;4832683;29;20041;-79
2021/12/23 11:47:24;;;;;;;42.67;24.77;;;3.30;99.90;;;;;;4882502;29;20040;-78
2021/12/23 11:49:51;;;;;;;46.13;26.73;;;3.40;99.90;;;;;;4872806;29;20059;-78
2021/12/23 11:52:17;;;;;;;39.13;24.80;;;3.30;99.90;;;;;;4862360;29;20043;-78
2021/12/23 11:54:46;;;;;;;42.63;23.73;;;3.40;99.90;;;;;;4860435;29;20044;-78
2021/12/23 11:57:18;;;;;;;42.07;25.07;;;3.40;99.90;;;;;;4862108;29;20136;-78
2021/12/23 12:00:03;;;;;;;40.93;23.10;;;3.40;99.90;;;;;;4876335;29;20032;-77
2021/12/23 12:02:33;;;;;;;44.43;25.87;;;3.50;99.90;;;;;;4873325;29;20042;-77
2021/12/23 12:05:04;;;;;;;46.47;26.00;;;3.50;99.90;;;;;;4851086;29;20554;-77
2021/12/23 12:07:31;;;;;;;43.10;26.20;;;3.50;99.90;;;;;;4866889;29;20048;-77
2021/12/23 12:10:08;;;;;;;43.55;25.45;;;3.50;99.90;;;;;;4863970;29;20139;-78
2021/12/23 12:12:54;;;;;;;46.83;27.40;;;3.50;99.90;;;;;;4857699;29;20135;-78
2021/12/23 12:15:39;;;;;;;43.95;25.70;;;3.60;99.90;;;;;;4852942;29;20044;-79
2021/12/23 12:18:15;;;;;;;42.03;24.67;;;3.70;99.90;;;;;;4875385;29;20040;-81
2021/12/23 12:20:46;;;;;;;47.55;26.33;;;3.70;99.90;;;;;;4845178;29;20037;-80
2021/12/23 12:23:19;;;;;;;43.27;25.60;;;3.70;99.90;;;;;;4845576;29;20040;-81
2021/12/23 12:26:00;;;;;;;45.72;27.40;;;3.70;99.90;;;;;;4844342;29;20037;-81
2021/12/23 12:28:30;;;;;;;42.13;23.87;;;3.80;99.90;;;;;;4879422;29;20037;-79
2021/12/23 12:31:01;;;;;;;43.13;25.63;;;3.80;99.90;;;;;;4877805;29;20040;-78
2021/12/23 12:33:28;;;;;;;41.53;23.65;;;3.80;99.90;;;;;;4858484;29;20033;-78
2021/12/23 12:36:06;;;;;;;44.57;25.97;;;3.90;99.90;;;;;;4881565;29;20048;-78
2021/12/23 12:38:46;;;;;;;41.17;23.87;;;3.90;99.90;;;;;;4881318;29;20032;-78
2021/12/23 12:41:23;;;;;;;42.17;24.07;;;3.90;99.90;;;;;;4858538;29;20380;-78
2021/12/23 12:43:59;;;;;;;39.40;23.63;;;3.90;99.90;;;;;;4846915;29;20048;-78
2021/12/23 12:49:22;;;;;;;43.55;24.08;;;3.90;99.90;;;;;;4876485;29;20045;-79
2021/12/23 12:51:51;;;;;;;40.80;22.57;;;4.00;99.90;;;;;;4857883;29;20126;-79
2021/12/23 12:54:59;;;;;;;42.53;25.00;;;4.10;99.90;;;;;;4860812;29;20037;-80
2021/12/23 12:57:31;;;;;;;41.83;24.35;;;4.20;99.90;;;;;;4874925;29;20040;-80
2021/12/23 13:00:13;;;;;;;;;;;4.30;99.90;;;;;;4877899;29;20379;-79
2021/12/23 13:02:40;;;;;;;47.13;25.98;;;4.30;99.90;;;;;;4890335;29;19919;-79
2021/12/23 13:05:10;;;;;;;41.27;25.30;;;4.40;99.90;;;;;;4873745;29;20043;-80
2021/12/23 13:08:29;;;;;;;40.30;23.95;;;4.40;99.90;;;;;;4844563;29;20065;-80
2021/12/23 13:11:21;;;;;;;41.80;23.73;;;4.30;99.90;;;;;;4890779;29;20492;-80
2021/12/23 13:14:20;;;;;;;45.22;25.13;;;4.40;99.90;;;;;;4862427;29;20051;-79
2021/12/23 13:17:06;;;;;;;41.28;24.83;;;4.40;99.90;;;;;;4873191;29;20036;-80
2021/12/23 13:19:35;;;;;;;46.75;24.75;;;4.40;99.90;;;;;;4873230;29;20036;-80
2021/12/23 13:22:06;;;;;;;46.40;26.20;;;4.30;99.90;;;;;;4883852;29;20079;-80
2021/12/23 13:24:33;;;;;;;41.17;24.88;;;4.40;99.90;;;;;;4851143;29;20055;-80
2021/12/23 13:27:01;;;;;;;38.77;22.33;;;4.40;99.90;;;;;;4889740;29;20036;-79
2021/12/23 13:29:30;;;;;;;43.05;25.17;;;4.40;99.90;;;;;;4860309;29;20044;-80
2021/12/23 13:31:59;;;;;;;44.30;26.23;;;4.40;99.90;;;;;;4900396;29;20043;-80
2021/12/23 13:34:29;;;;;;;45.08;26.95;;;4.40;99.90;;;;;;4866875;29;20040;-83
2021/12/23 13:36:58;;;;;;;40.90;24.63;;;4.30;99.90;;;;;;4890646;29;20481;-81
2021/12/23 13:39:27;;;;;;;42.45;26.50;;;4.30;99.90;;;;;;4873383;29;20028;-80
2021/12/23 13:42:03;;;;;;;41.58;24.52;;;4.30;99.90;;;;;;4887274;29;20053;-81
2021/12/23 13:44:33;;;;;;;38.40;22.17;;;4.30;99.90;;;;;;4857300;29;20036;-80
2021/12/23 13:47:13;;;;;;;41.70;23.92;;;4.30;99.90;;;;;;4893054;29;20028;-77
2021/12/23 13:49:46;;;;;;;42.05;24.13;;;4.30;99.90;;;;;;4885659;29;20080;-80
2021/12/23 13:52:25;;;;;;;38.15;22.60;;;4.30;99.90;;;;;;4866519;29;20047;-78
2021/12/23 13:55:00;;;;;;;42.67;25.15;;;4.30;99.90;;;;;;4874412;29;20049;-79
2021/12/23 13:57:32;;;;;;;44.28;24.67;;;4.30;99.90;;;;;;4866559;29;20488;-79
2021/12/23 13:59:58;;;;;;;44.05;25.58;;;4.30;99.90;;;;;;4871211;29;20044;-81
2021/12/23 14:02:27;;;;;;;43.17;24.53;;;4.30;99.90;;;;;;4863547;29;20528;-79
2021/12/23 14:05:03;;;;;;;44.60;25.55;;;4.30;99.90;;;;;;4885222;29;20073;-79
2021/12/23 14:07:36;;;;;;;40.63;25.20;;;4.30;99.90;;;;;;4859942;29;20036;-79
2021/12/23 14:10:16;;;;;;;41.50;25.50;;;4.30;99.90;;;;;;4884450;29;20062;-79
2021/12/23 14:12:52;;;;;;;41.60;23.23;;;4.30;99.90;;;;;;4871796;29;20098;-78